sensor_id;sensor_type;location;lat;lon;timestamp;P1;durP1;ratioP1;P2;durP2;ratioP2
71606;SDS011;60641;53.556;9.914;2022-08-01T00:01:13;8.00;;;4.50;;
71606;SDS011;60641;53.556;9.914;2022-08-01T00:03:39;8.50;;;4.30;;
71606;SDS011;60641;53.556;9.914;2022-08-01T00:06:06;8.50;;;4.70;;
71606;SDS011;60641;53.556;9.914;2022-08-01T00:08:32;8.50;;;4.70;;
71606;SDS011;60641;53.556;9.914;2022-08-01T00:10:59;7.40;;;4.40;;
71606;SDS011;60641;53.556;9.914;2022-08-01T00:13:25;8.70;;;4.20;;
71606;SDS011;60641;53.556;9.914;2022-08-01T00:15:51;8.10;;;3.90;;
71606;SDS011;60641;53.556;9.914;2022-08-01T00:18:18;8.80;;;4.10;;
71606;SDS011;60641;53.556;9.914;2022-08-01T00:20:44;7.40;;;4.20;;
71606;SDS011;60641;53.556;9.914;2022-08-01T00:23:10;8.80;;;4.60;;
71606;SDS011;60641;53.556;9.914;2022-08-01T00:25:37;8.10;;;4.30;;
71606;SDS011;60641;53.556;9.914;2022-08-01T00:28:03;8.30;;;4.10;;
71606;SDS011;60641;53.556;9.914;2022-08-01T00:30:30;8.00;;;4.50;;
71606;SDS011;60641;53.556;9.914;2022-08-01T00:32:57;10.00;;;4.10;;
71606;SDS011;60641;53.556;9.914;2022-08-01T00:35:23;8.70;;;4.90;;
71606;SDS011;60641;53.556;9.914;2022-08-01T00:37:49;11.70;;;4.80;;
71606;SDS011;60641;53.556;9.914;2022-08-01T00:40:17;9.30;;;4.50;;
71606;SDS011;60641;53.556;9.914;2022-08-01T00:42:43;9.90;;;4.80;;
71606;SDS011;60641;53.556;9.914;2022-08-01T00:45:10;7.30;;;4.00;;
71606;SDS011;60641;53.556;9.914;2022-08-01T00:47:37;8.80;;;4.50;;
71606;SDS011;60641;53.556;9.914;2022-08-01T00:50:04;8.20;;;4.60;;
71606;SDS011;60641;53.556;9.914;2022-08-01T00:52:31;8.80;;;4.20;;
71606;SDS011;60641;53.556;9.914;2022-08-01T00:54:58;8.30;;;4.60;;
71606;SDS011;60641;53.556;9.914;2022-08-01T00:57:25;7.70;;;4.00;;
71606;SDS011;60641;53.556;9.914;2022-08-01T00:59:52;9.50;;;4.00;;
71606;SDS011;60641;53.556;9.914;2022-08-01T01:02:18;8.20;;;4.60;;
71606;SDS011;60641;53.556;9.914;2022-08-01T01:04:45;8.80;;;5.00;;
71606;SDS011;60641;53.556;9.914;2022-08-01T01:18:21;8.50;;;4.60;;
71606;SDS011;60641;53.556;9.914;2022-08-01T01:21:13;10.30;;;4.50;;
71606;SDS011;60641;53.556;9.914;2022-08-01T01:32:02;10.90;;;4.10;;
71606;SDS011;60641;53.556;9.914;2022-08-01T01:34:35;7.50;;;4.10;;
71606;SDS011;60641;53.556;9.914;2022-08-01T01:37:04;7.90;;;4.20;;
71606;SDS011;60641;53.556;9.914;2022-08-01T01:39:32;11.20;;;4.10;;
71606;SDS011;60641;53.556;9.914;2022-08-01T01:42:00;8.00;;;4.10;;
71606;SDS011;60641;53.556;9.914;2022-08-01T01:44:27;9.90;;;4.20;;
71606;SDS011;60641;53.556;9.914;2022-08-01T01:46:53;9.40;;;4.40;;
71606;SDS011;60641;53.556;9.914;2022-08-01T01:49:21;9.70;;;4.90;;
71606;SDS011;60641;53.556;9.914;2022-08-01T01:51:50;9.40;;;5.10;;
71606;SDS011;60641;53.556;9.914;2022-08-01T01:54:17;10.50;;;5.10;;
71606;SDS011;60641;53.556;9.914;2022-08-01T01:56:44;11.00;;;4.90;;
71606;SDS011;60641;53.556;9.914;2022-08-01T01:59:20;10.80;;;5.20;;
71606;SDS011;60641;53.556;9.914;2022-08-01T02:01:47;9.60;;;4.30;;
71606;SDS011;60641;53.556;9.914;2022-08-01T02:04:16;9.40;;;4.90;;
71606;SDS011;60641;53.556;9.914;2022-08-01T02:06:43;9.60;;;4.20;;
71606;SDS011;60641;53.556;9.914;2022-08-01T02:09:19;10.40;;;4.50;;
71606;SDS011;60641;53.556;9.914;2022-08-01T02:11:47;8.90;;;4.10;;
71606;SDS011;60641;53.556;9.914;2022-08-01T02:14:14;8.60;;;4.20;;
71606;SDS011;60641;53.556;9.914;2022-08-01T02:16:42;9.00;;;3.80;;
71606;SDS011;60641;53.556;9.914;2022-08-01T02:19:16;12.70;;;4.10;;
71606;SDS011;60641;53.556;9.914;2022-08-01T02:21:56;8.50;;;3.90;;
71606;SDS011;60641;53.556;9.914;2022-08-01T02:27:07;8.30;;;3.90;;
71606;SDS011;60641;53.556;9.914;2022-08-01T02:29:37;10.40;;;4.50;;
71606;SDS011;60641;53.556;9.914;2022-08-01T02:32:07;10.50;;;3.70;;
71606;SDS011;60641;53.556;9.914;2022-08-01T02:34:34;6.10;;;3.20;;
71606;SDS011;60641;53.556;9.914;2022-08-01T02:37:01;7.80;;;3.80;;
71606;SDS011;60641;53.556;9.914;2022-08-01T02:39:29;9.80;;;3.90;;
71606;SDS011;60641;53.556;9.914;2022-08-01T02:41:57;10.40;;;3.80;;
71606;SDS011;60641;53.556;9.914;2022-08-01T02:44:28;8.20;;;4.10;;
71606;SDS011;60641;53.556;9.914;2022-08-01T02:46:58;6.90;;;3.80;;
71606;SDS011;60641;53.556;9.914;2022-08-01T02:49:33;8.70;;;4.00;;
71606;SDS011;60641;53.556;9.914;2022-08-01T02:52:03;9.80;;;4.00;;
71606;SDS011;60641;53.556;9.914;2022-08-01T02:54:31;10.00;;;4.30;;
71606;SDS011;60641;53.556;9.914;2022-08-01T02:57:00;7.40;;;3.50;;
71606;SDS011;60641;53.556;9.914;2022-08-01T02:59:27;8.90;;;3.40;;
71606;SDS011;60641;53.556;9.914;2022-08-01T03:01:56;8.60;;;3.50;;
71606;SDS011;60641;53.556;9.914;2022-08-01T03:04:23;7.80;;;3.60;;
71606;SDS011;60641;53.556;9.914;2022-08-01T03:06:51;7.30;;;3.50;;
71606;SDS011;60641;53.556;9.914;2022-08-01T03:09:19;7.20;;;3.70;;
71606;SDS011;60641;53.556;9.914;2022-08-01T03:11:46;7.00;;;3.20;;
71606;SDS011;60641;53.556;9.914;2022-08-01T03:14:14;9.00;;;3.50;;
71606;SDS011;60641;53.556;9.914;2022-08-01T03:16:41;8.30;;;3.60;;
71606;SDS011;60641;53.556;9.914;2022-08-01T03:19:10;8.70;;;3.70;;
71606;SDS011;60641;53.556;9.914;2022-08-01T03:21:38;8.50;;;3.50;;
71606;SDS011;60641;53.556;9.914;2022-08-01T03:24:05;7.10;;;3.30;;
71606;SDS011;60641;53.556;9.914;2022-08-01T03:26:33;6.90;;;3.50;;
71606;SDS011;60641;53.556;9.914;2022-08-01T03:29:05;8.10;;;3.20;;
71606;SDS011;60641;53.556;9.914;2022-08-01T03:31:35;8.60;;;3.60;;
71606;SDS011;60641;53.556;9.914;2022-08-01T03:34:04;6.90;;;3.30;;
71606;SDS011;60641;53.556;9.914;2022-08-01T03:36:31;8.60;;;3.50;;
71606;SDS011;60641;53.556;9.914;2022-08-01T03:38:59;8.00;;;3.20;;
71606;SDS011;60641;53.556;9.914;2022-08-01T03:41:28;9.00;;;3.10;;
71606;SDS011;60641;53.556;9.914;2022-08-01T03:43:59;6.50;;;3.10;;
71606;SDS011;60641;53.556;9.914;2022-08-01T03:47:02;7.70;;;3.30;;
71606;SDS011;60641;53.556;9.914;2022-08-01T03:49:32;6.10;;;3.10;;
71606;SDS011;60641;53.556;9.914;2022-08-01T03:52:01;7.70;;;2.60;;
71606;SDS011;60641;53.556;9.914;2022-08-01T03:54:30;6.00;;;2.50;;
71606;SDS011;60641;53.556;9.914;2022-08-01T03:56:59;6.40;;;2.80;;
71606;SDS011;60641;53.556;9.914;2022-08-01T03:59:27;6.00;;;2.60;;
71606;SDS011;60641;53.556;9.914;2022-08-01T04:01:54;7.20;;;2.50;;
71606;SDS011;60641;53.556;9.914;2022-08-01T04:04:21;5.80;;;2.50;;
71606;SDS011;60641;53.556;9.914;2022-08-01T04:06:48;9.20;;;2.60;;
71606;SDS011;60641;53.556;9.914;2022-08-01T04:09:20;6.30;;;2.50;;
71606;SDS011;60641;53.556;9.914;2022-08-01T04:11:47;7.00;;;2.10;;
71606;SDS011;60641;53.556;9.914;2022-08-01T04:14:14;5.40;;;2.20;;
71606;SDS011;60641;53.556;9.914;2022-08-01T04:16:40;5.70;;;2.00;;
71606;SDS011;60641;53.556;9.914;2022-08-01T04:19:07;5.10;;;2.00;;
71606;SDS011;60641;53.556;9.914;2022-08-01T04:21:34;6.40;;;2.00;;
71606;SDS011;60641;53.556;9.914;2022-08-01T04:24:03;6.60;;;1.80;;
71606;SDS011;60641;53.556;9.914;2022-08-01T04:26:39;5.70;;;2.00;;
71606;SDS011;60641;53.556;9.914;2022-08-01T04:29:07;5.90;;;2.00;;
71606;SDS011;60641;53.556;9.914;2022-08-01T04:31:35;6.10;;;1.80;;
71606;SDS011;60641;53.556;9.914;2022-08-01T04:34:02;6.80;;;2.00;;
71606;SDS011;60641;53.556;9.914;2022-08-01T04:36:30;6.10;;;2.00;;
71606;SDS011;60641;53.556;9.914;2022-08-01T04:39:00;5.90;;;2.00;;
71606;SDS011;60641;53.556;9.914;2022-08-01T04:41:27;5.10;;;1.60;;
71606;SDS011;60641;53.556;9.914;2022-08-01T04:43:54;5.30;;;1.70;;
71606;SDS011;60641;53.556;9.914;2022-08-01T04:46:21;4.80;;;1.60;;
71606;SDS011;60641;53.556;9.914;2022-08-01T04:48:48;4.20;;;1.50;;
71606;SDS011;60641;53.556;9.914;2022-08-01T04:51:16;4.30;;;1.40;;
71606;SDS011;60641;53.556;9.914;2022-08-01T04:53:43;4.00;;;1.50;;
71606;SDS011;60641;53.556;9.914;2022-08-01T04:56:12;4.30;;;1.40;;
71606;SDS011;60641;53.556;9.914;2022-08-01T04:58:41;5.30;;;1.10;;
71606;SDS011;60641;53.556;9.914;2022-08-01T05:01:08;3.80;;;1.10;;
71606;SDS011;60641;53.556;9.914;2022-08-01T05:03:35;3.20;;;1.30;;
71606;SDS011;60641;53.556;9.914;2022-08-01T05:06:03;2.90;;;1.10;;
71606;SDS011;60641;53.556;9.914;2022-08-01T05:08:29;3.30;;;1.20;;
71606;SDS011;60641;53.556;9.914;2022-08-01T05:10:56;3.70;;;1.00;;
71606;SDS011;60641;53.556;9.914;2022-08-01T05:13:22;3.20;;;0.90;;
71606;SDS011;60641;53.556;9.914;2022-08-01T05:15:49;3.80;;;1.20;;
71606;SDS011;60641;53.556;9.914;2022-08-01T05:18:15;4.50;;;1.20;;
71606;SDS011;60641;53.556;9.914;2022-08-01T05:20:42;2.90;;;1.20;;
71606;SDS011;60641;53.556;9.914;2022-08-01T05:23:08;2.70;;;1.30;;
71606;SDS011;60641;53.556;9.914;2022-08-01T05:25:35;3.70;;;1.20;;
71606;SDS011;60641;53.556;9.914;2022-08-01T05:28:02;3.90;;;1.50;;
71606;SDS011;60641;53.556;9.914;2022-08-01T05:30:29;3.20;;;1.30;;
71606;SDS011;60641;53.556;9.914;2022-08-01T05:32:55;5.50;;;1.50;;
71606;SDS011;60641;53.556;9.914;2022-08-01T05:35:22;4.50;;;1.40;;
71606;SDS011;60641;53.556;9.914;2022-08-01T05:37:49;5.10;;;1.50;;
71606;SDS011;60641;53.556;9.914;2022-08-01T05:40:15;5.20;;;1.70;;
71606;SDS011;60641;53.556;9.914;2022-08-01T05:42:41;5.40;;;1.50;;
71606;SDS011;60641;53.556;9.914;2022-08-01T05:45:08;8.20;;;1.70;;
71606;SDS011;60641;53.556;9.914;2022-08-01T05:47:35;4.30;;;1.50;;
71606;SDS011;60641;53.556;9.914;2022-08-01T05:50:01;5.00;;;1.90;;
71606;SDS011;60641;53.556;9.914;2022-08-01T05:52:27;4.80;;;1.70;;
71606;SDS011;60641;53.556;9.914;2022-08-01T05:54:54;4.70;;;1.70;;
71606;SDS011;60641;53.556;9.914;2022-08-01T05:57:21;3.80;;;1.80;;
71606;SDS011;60641;53.556;9.914;2022-08-01T05:59:47;4.90;;;1.50;;
71606;SDS011;60641;53.556;9.914;2022-08-01T06:02:14;6.60;;;1.50;;
71606;SDS011;60641;53.556;9.914;2022-08-01T06:04:41;4.80;;;1.40;;
71606;SDS011;60641;53.556;9.914;2022-08-01T06:07:07;4.80;;;1.40;;
71606;SDS011;60641;53.556;9.914;2022-08-01T06:09:34;5.30;;;1.60;;
71606;SDS011;60641;53.556;9.914;2022-08-01T06:12:04;7.50;;;2.20;;
71606;SDS011;60641;53.556;9.914;2022-08-01T06:14:30;5.80;;;1.80;;
71606;SDS011;60641;53.556;9.914;2022-08-01T06:16:57;7.80;;;2.10;;
71606;SDS011;60641;53.556;9.914;2022-08-01T06:19:25;6.40;;;1.90;;
71606;SDS011;60641;53.556;9.914;2022-08-01T06:21:52;6.40;;;2.10;;
71606;SDS011;60641;53.556;9.914;2022-08-01T06:24:18;5.90;;;2.00;;
71606;SDS011;60641;53.556;9.914;2022-08-01T06:26:45;7.20;;;2.00;;
71606;SDS011;60641;53.556;9.914;2022-08-01T06:29:11;7.80;;;1.70;;
71606;SDS011;60641;53.556;9.914;2022-08-01T06:31:39;6.40;;;1.60;;
71606;SDS011;60641;53.556;9.914;2022-08-01T06:34:05;6.20;;;1.60;;
71606;SDS011;60641;53.556;9.914;2022-08-01T06:36:31;5.50;;;1.60;;
71606;SDS011;60641;53.556;9.914;2022-08-01T06:38:58;10.50;;;5.40;;
71606;SDS011;60641;53.556;9.914;2022-08-01T06:41:24;6.60;;;1.90;;
71606;SDS011;60641;53.556;9.914;2022-08-01T06:43:50;7.90;;;1.90;;
71606;SDS011;60641;53.556;9.914;2022-08-01T06:46:17;7.80;;;2.20;;
71606;SDS011;60641;53.556;9.914;2022-08-01T06:48:43;9.80;;;1.80;;
71606;SDS011;60641;53.556;9.914;2022-08-01T06:51:10;6.00;;;1.90;;
71606;SDS011;60641;53.556;9.914;2022-08-01T06:53:39;8.70;;;2.00;;
71606;SDS011;60641;53.556;9.914;2022-08-01T06:56:06;9.60;;;2.50;;
71606;SDS011;60641;53.556;9.914;2022-08-01T06:58:34;7.60;;;2.10;;
71606;SDS011;60641;53.556;9.914;2022-08-01T07:01:01;9.00;;;1.80;;
71606;SDS011;60641;53.556;9.914;2022-08-01T07:03:32;6.00;;;1.50;;
71606;SDS011;60641;53.556;9.914;2022-08-01T07:05:59;8.10;;;1.70;;
71606;SDS011;60641;53.556;9.914;2022-08-01T07:08:25;6.40;;;1.50;;
71606;SDS011;60641;53.556;9.914;2022-08-01T07:10:52;8.50;;;1.70;;
71606;SDS011;60641;53.556;9.914;2022-08-01T07:13:18;7.30;;;1.70;;
71606;SDS011;60641;53.556;9.914;2022-08-01T07:15:49;9.80;;;1.80;;
71606;SDS011;60641;53.556;9.914;2022-08-01T07:18:15;8.40;;;2.30;;
71606;SDS011;60641;53.556;9.914;2022-08-01T07:20:41;8.00;;;2.20;;
71606;SDS011;60641;53.556;9.914;2022-08-01T07:23:09;12.80;;;2.50;;
71606;SDS011;60641;53.556;9.914;2022-08-01T07:25:35;10.40;;;2.40;;
71606;SDS011;60641;53.556;9.914;2022-08-01T07:28:02;16.50;;;2.60;;
71606;SDS011;60641;53.556;9.914;2022-08-01T07:30:28;10.40;;;2.60;;
71606;SDS011;60641;53.556;9.914;2022-08-01T07:32:55;11.00;;;2.50;;
71606;SDS011;60641;53.556;9.914;2022-08-01T07:35:21;12.10;;;2.30;;
71606;SDS011;60641;53.556;9.914;2022-08-01T07:37:48;9.70;;;2.50;;
71606;SDS011;60641;53.556;9.914;2022-08-01T07:40:14;14.60;;;2.40;;
71606;SDS011;60641;53.556;9.914;2022-08-01T07:42:41;15.80;;;2.50;;
71606;SDS011;60641;53.556;9.914;2022-08-01T07:45:09;12.60;;;2.40;;
71606;SDS011;60641;53.556;9.914;2022-08-01T07:47:36;13.00;;;2.20;;
71606;SDS011;60641;53.556;9.914;2022-08-01T07:50:03;11.70;;;2.10;;
71606;SDS011;60641;53.556;9.914;2022-08-01T07:52:31;15.10;;;2.20;;
71606;SDS011;60641;53.556;9.914;2022-08-01T07:54:57;9.80;;;2.20;;
71606;SDS011;60641;53.556;9.914;2022-08-01T07:57:24;12.80;;;2.20;;
71606;SDS011;60641;53.556;9.914;2022-08-01T07:59:51;12.70;;;1.90;;
71606;SDS011;60641;53.556;9.914;2022-08-01T08:02:17;12.50;;;2.00;;
71606;SDS011;60641;53.556;9.914;2022-08-01T08:04:44;13.60;;;2.40;;
71606;SDS011;60641;53.556;9.914;2022-08-01T08:07:10;8.20;;;1.70;;
71606;SDS011;60641;53.556;9.914;2022-08-01T08:09:37;10.40;;;2.10;;
71606;SDS011;60641;53.556;9.914;2022-08-01T08:12:03;9.80;;;1.40;;
71606;SDS011;60641;53.556;9.914;2022-08-01T08:14:31;7.20;;;1.50;;
71606;SDS011;60641;53.556;9.914;2022-08-01T08:16:57;9.50;;;2.10;;
71606;SDS011;60641;53.556;9.914;2022-08-01T08:19:23;9.20;;;1.60;;
71606;SDS011;60641;53.556;9.914;2022-08-01T08:21:50;6.50;;;1.10;;
71606;SDS011;60641;53.556;9.914;2022-08-01T08:24:16;7.30;;;1.40;;
71606;SDS011;60641;53.556;9.914;2022-08-01T08:26:53;8.40;;;1.20;;
71606;SDS011;60641;53.556;9.914;2022-08-01T08:29:21;7.30;;;1.30;;
71606;SDS011;60641;53.556;9.914;2022-08-01T08:31:48;7.60;;;1.20;;
71606;SDS011;60641;53.556;9.914;2022-08-01T08:34:15;8.80;;;1.40;;
71606;SDS011;60641;53.556;9.914;2022-08-01T08:36:41;9.20;;;1.40;;
71606;SDS011;60641;53.556;9.914;2022-08-01T08:39:08;10.80;;;1.40;;
71606;SDS011;60641;53.556;9.914;2022-08-01T08:41:34;11.60;;;1.70;;
71606;SDS011;60641;53.556;9.914;2022-08-01T08:44:02;9.60;;;1.40;;
71606;SDS011;60641;53.556;9.914;2022-08-01T08:46:30;9.60;;;1.30;;
71606;SDS011;60641;53.556;9.914;2022-08-01T08:49:01;11.80;;;1.60;;
71606;SDS011;60641;53.556;9.914;2022-08-01T08:51:33;6.40;;;1.20;;
71606;SDS011;60641;53.556;9.914;2022-08-01T08:54:00;7.20;;;1.10;;
71606;SDS011;60641;53.556;9.914;2022-08-01T08:56:29;6.70;;;1.10;;
71606;SDS011;60641;53.556;9.914;2022-08-01T08:59:01;9.60;;;1.20;;
71606;SDS011;60641;53.556;9.914;2022-08-01T09:01:28;6.60;;;1.50;;
71606;SDS011;60641;53.556;9.914;2022-08-01T09:03:59;6.40;;;1.10;;
71606;SDS011;60641;53.556;9.914;2022-08-01T09:06:25;7.30;;;1.10;;
71606;SDS011;60641;53.556;9.914;2022-08-01T09:08:52;7.30;;;1.20;;
71606;SDS011;60641;53.556;9.914;2022-08-01T09:11:18;7.30;;;1.60;;
71606;SDS011;60641;53.556;9.914;2022-08-01T09:14:00;12.10;;;1.90;;
71606;SDS011;60641;53.556;9.914;2022-08-01T09:16:40;8.30;;;1.50;;
71606;SDS011;60641;53.556;9.914;2022-08-01T09:21:37;8.50;;;1.70;;
71606;SDS011;60641;53.556;9.914;2022-08-01T09:24:03;9.30;;;1.90;;
71606;SDS011;60641;53.556;9.914;2022-08-01T09:26:38;7.90;;;1.80;;
71606;SDS011;60641;53.556;9.914;2022-08-01T09:29:05;11.40;;;2.00;;
71606;SDS011;60641;53.556;9.914;2022-08-01T09:31:41;9.40;;;2.00;;
71606;SDS011;60641;53.556;9.914;2022-08-01T09:34:09;10.10;;;1.90;;
71606;SDS011;60641;53.556;9.914;2022-08-01T09:36:49;11.20;;;1.80;;
71606;SDS011;60641;53.556;9.914;2022-08-01T09:39:21;10.70;;;1.90;;
71606;SDS011;60641;53.556;9.914;2022-08-01T09:41:49;14.40;;;2.20;;
71606;SDS011;60641;53.556;9.914;2022-08-01T09:44:17;8.80;;;2.00;;
71606;SDS011;60641;53.556;9.914;2022-08-01T09:46:54;10.90;;;2.40;;
71606;SDS011;60641;53.556;9.914;2022-08-01T09:49:31;11.10;;;2.20;;
71606;SDS011;60641;53.556;9.914;2022-08-01T09:51:59;11.00;;;2.30;;
71606;SDS011;60641;53.556;9.914;2022-08-01T09:54:35;11.10;;;2.20;;
71606;SDS011;60641;53.556;9.914;2022-08-01T09:57:09;8.40;;;2.00;;
71606;SDS011;60641;53.556;9.914;2022-08-01T09:59:37;11.10;;;2.20;;
71606;SDS011;60641;53.556;9.914;2022-08-01T10:02:06;9.70;;;2.20;;
71606;SDS011;60641;53.556;9.914;2022-08-01T10:04:33;9.80;;;2.10;;
71606;SDS011;60641;53.556;9.914;2022-08-01T10:07:06;11.30;;;2.10;;
71606;SDS011;60641;53.556;9.914;2022-08-01T10:09:34;10.50;;;2.10;;
71606;SDS011;60641;53.556;9.914;2022-08-01T10:12:01;13.40;;;2.00;;
71606;SDS011;60641;53.556;9.914;2022-08-01T10:14:29;6.70;;;1.60;;
71606;SDS011;60641;53.556;9.914;2022-08-01T10:16:58;10.40;;;2.40;;
71606;SDS011;60641;53.556;9.914;2022-08-01T10:19:26;8.60;;;2.00;;
71606;SDS011;60641;53.556;9.914;2022-08-01T10:21:54;9.70;;;2.40;;
71606;SDS011;60641;53.556;9.914;2022-08-01T10:24:21;9.40;;;2.20;;
71606;SDS011;60641;53.556;9.914;2022-08-01T10:26:49;11.20;;;2.20;;
71606;SDS011;60641;53.556;9.914;2022-08-01T10:29:21;11.90;;;2.40;;
71606;SDS011;60641;53.556;9.914;2022-08-01T10:31:48;9.10;;;1.70;;
71606;SDS011;60641;53.556;9.914;2022-08-01T10:34:14;8.60;;;1.60;;
71606;SDS011;60641;53.556;9.914;2022-08-01T10:36:44;8.00;;;1.60;;
71606;SDS011;60641;53.556;9.914;2022-08-01T10:39:12;9.10;;;1.50;;
71606;SDS011;60641;53.556;9.914;2022-08-01T10:41:39;7.40;;;1.20;;
71606;SDS011;60641;53.556;9.914;2022-08-01T10:44:06;11.30;;;1.80;;
71606;SDS011;60641;53.556;9.914;2022-08-01T10:46:39;10.40;;;1.60;;
71606;SDS011;60641;53.556;9.914;2022-08-01T10:49:11;10.10;;;1.50;;
71606;SDS011;60641;53.556;9.914;2022-08-01T10:51:40;11.00;;;1.50;;
71606;SDS011;60641;53.556;9.914;2022-08-01T10:54:08;6.90;;;1.40;;
71606;SDS011;60641;53.556;9.914;2022-08-01T10:56:46;10.10;;;1.50;;
71606;SDS011;60641;53.556;9.914;2022-08-01T10:59:24;9.30;;;1.40;;
71606;SDS011;60641;53.556;9.914;2022-08-01T11:01:55;6.20;;;1.20;;
71606;SDS011;60641;53.556;9.914;2022-08-01T11:04:32;10.70;;;1.50;;
71606;SDS011;60641;53.556;9.914;2022-08-01T11:07:16;9.80;;;1.90;;
71606;SDS011;60641;53.556;9.914;2022-08-01T11:09:46;8.10;;;1.70;;
71606;SDS011;60641;53.556;9.914;2022-08-01T11:12:16;8.00;;;1.30;;
71606;SDS011;60641;53.556;9.914;2022-08-01T11:17:35;11.00;;;1.70;;
71606;SDS011;60641;53.556;9.914;2022-08-01T11:26:05;9.50;;;1.40;;
71606;SDS011;60641;53.556;9.914;2022-08-01T11:30:44;8.90;;;1.40;;
71606;SDS011;60641;53.556;9.914;2022-08-01T11:33:16;6.30;;;1.30;;
71606;SDS011;60641;53.556;9.914;2022-08-01T11:38:36;7.40;;;1.30;;
71606;SDS011;60641;53.556;9.914;2022-08-01T11:52:14;8.60;;;1.30;;
71606;SDS011;60641;53.556;9.914;2022-08-01T11:57:18;10.10;;;1.30;;
71606;SDS011;60641;53.556;9.914;2022-08-01T12:04:49;8.10;;;1.60;;
71606;SDS011;60641;53.556;9.914;2022-08-01T12:07:17;13.00;;;2.20;;
71606;SDS011;60641;53.556;9.914;2022-08-01T12:09:45;7.80;;;1.60;;
71606;SDS011;60641;53.556;9.914;2022-08-01T12:12:15;6.60;;;1.30;;
71606;SDS011;60641;53.556;9.914;2022-08-01T12:14:44;7.90;;;1.30;;
71606;SDS011;60641;53.556;9.914;2022-08-01T12:17:11;8.30;;;1.60;;
71606;SDS011;60641;53.556;9.914;2022-08-01T12:19:39;10.50;;;1.60;;
71606;SDS011;60641;53.556;9.914;2022-08-01T12:22:07;10.20;;;1.90;;
71606;SDS011;60641;53.556;9.914;2022-08-01T12:24:39;9.00;;;1.20;;
71606;SDS011;60641;53.556;9.914;2022-08-01T12:27:07;10.10;;;1.50;;
71606;SDS011;60641;53.556;9.914;2022-08-01T12:32:20;10.10;;;1.20;;
71606;SDS011;60641;53.556;9.914;2022-08-01T12:34:55;4.90;;;0.90;;
71606;SDS011;60641;53.556;9.914;2022-08-01T12:37:22;8.80;;;1.20;;
71606;SDS011;60641;53.556;9.914;2022-08-01T12:39:49;10.00;;;1.30;;
71606;SDS011;60641;53.556;9.914;2022-08-01T12:42:15;13.00;;;1.60;;
71606;SDS011;60641;53.556;9.914;2022-08-01T12:44:43;10.00;;;1.60;;
71606;SDS011;60641;53.556;9.914;2022-08-01T12:47:12;9.00;;;1.30;;
71606;SDS011;60641;53.556;9.914;2022-08-01T12:49:40;10.50;;;1.20;;
71606;SDS011;60641;53.556;9.914;2022-08-01T12:52:08;8.30;;;1.50;;
71606;SDS011;60641;53.556;9.914;2022-08-01T12:57:30;9.50;;;1.20;;
71606;SDS011;60641;53.556;9.914;2022-08-01T13:02:33;8.30;;;1.30;;
71606;SDS011;60641;53.556;9.914;2022-08-01T13:05:01;10.90;;;1.50;;
71606;SDS011;60641;53.556;9.914;2022-08-01T13:07:41;7.50;;;1.20;;
71606;SDS011;60641;53.556;9.914;2022-08-01T13:10:09;7.10;;;1.00;;
71606;SDS011;60641;53.556;9.914;2022-08-01T13:12:37;8.50;;;1.20;;
71606;SDS011;60641;53.556;9.914;2022-08-01T13:15:18;16.00;;;1.40;;
71606;SDS011;60641;53.556;9.914;2022-08-01T13:17:49;6.00;;;0.90;;
71606;SDS011;60641;53.556;9.914;2022-08-01T13:20:30;6.50;;;1.10;;
71606;SDS011;60641;53.556;9.914;2022-08-01T13:23:17;8.10;;;1.20;;
71606;SDS011;60641;53.556;9.914;2022-08-01T13:25:55;9.10;;;1.10;;
71606;SDS011;60641;53.556;9.914;2022-08-01T13:28:23;10.10;;;1.20;;
71606;SDS011;60641;53.556;9.914;2022-08-01T13:31:04;6.50;;;1.10;;
71606;SDS011;60641;53.556;9.914;2022-08-01T13:33:41;5.10;;;1.10;;
71606;SDS011;60641;53.556;9.914;2022-08-01T13:36:08;7.50;;;1.10;;
71606;SDS011;60641;53.556;9.914;2022-08-01T13:38:34;8.00;;;0.90;;
71606;SDS011;60641;53.556;9.914;2022-08-01T13:41:19;6.50;;;1.20;;
71606;SDS011;60641;53.556;9.914;2022-08-01T13:43:46;6.40;;;1.00;;
71606;SDS011;60641;53.556;9.914;2022-08-01T13:46:12;6.20;;;1.20;;
71606;SDS011;60641;53.556;9.914;2022-08-01T13:48:39;10.10;;;1.40;;
71606;SDS011;60641;53.556;9.914;2022-08-01T13:51:05;6.10;;;0.90;;
71606;SDS011;60641;53.556;9.914;2022-08-01T13:53:32;6.80;;;1.30;;
71606;SDS011;60641;53.556;9.914;2022-08-01T13:55:58;8.80;;;1.30;;
71606;SDS011;60641;53.556;9.914;2022-08-01T13:58:25;8.40;;;1.20;;
71606;SDS011;60641;53.556;9.914;2022-08-01T14:00:51;7.40;;;1.30;;
71606;SDS011;60641;53.556;9.914;2022-08-01T14:03:18;6.90;;;1.30;;
71606;SDS011;60641;53.556;9.914;2022-08-01T14:05:44;7.40;;;1.10;;
71606;SDS011;60641;53.556;9.914;2022-08-01T14:08:11;5.10;;;1.10;;
71606;SDS011;60641;53.556;9.914;2022-08-01T14:10:37;5.00;;;1.00;;
71606;SDS011;60641;53.556;9.914;2022-08-01T14:13:04;5.60;;;1.00;;
71606;SDS011;60641;53.556;9.914;2022-08-01T14:15:31;8.30;;;1.20;;
71606;SDS011;60641;53.556;9.914;2022-08-01T14:17:58;9.00;;;1.10;;
71606;SDS011;60641;53.556;9.914;2022-08-01T14:20:25;6.30;;;0.90;;
71606;SDS011;60641;53.556;9.914;2022-08-01T14:22:51;7.00;;;1.10;;
71606;SDS011;60641;53.556;9.914;2022-08-01T14:25:18;7.30;;;1.20;;
71606;SDS011;60641;53.556;9.914;2022-08-01T14:27:44;6.70;;;0.90;;
71606;SDS011;60641;53.556;9.914;2022-08-01T14:30:11;7.50;;;1.10;;
71606;SDS011;60641;53.556;9.914;2022-08-01T14:32:38;6.90;;;1.40;;
71606;SDS011;60641;53.556;9.914;2022-08-01T14:35:05;6.40;;;1.00;;
71606;SDS011;60641;53.556;9.914;2022-08-01T14:37:32;5.80;;;1.10;;
71606;SDS011;60641;53.556;9.914;2022-08-01T14:39:59;5.50;;;1.10;;
71606;SDS011;60641;53.556;9.914;2022-08-01T14:42:30;5.60;;;1.00;;
71606;SDS011;60641;53.556;9.914;2022-08-01T14:44:56;6.40;;;1.10;;
71606;SDS011;60641;53.556;9.914;2022-08-01T14:47:23;7.20;;;1.20;;
71606;SDS011;60641;53.556;9.914;2022-08-01T14:49:50;8.10;;;1.10;;
71606;SDS011;60641;53.556;9.914;2022-08-01T14:52:16;6.20;;;1.00;;
71606;SDS011;60641;53.556;9.914;2022-08-01T14:54:43;6.80;;;1.10;;
71606;SDS011;60641;53.556;9.914;2022-08-01T14:57:09;4.40;;;1.00;;
71606;SDS011;60641;53.556;9.914;2022-08-01T14:59:36;7.30;;;1.10;;
71606;SDS011;60641;53.556;9.914;2022-08-01T15:02:02;5.00;;;1.20;;
71606;SDS011;60641;53.556;9.914;2022-08-01T15:04:29;7.20;;;1.40;;
71606;SDS011;60641;53.556;9.914;2022-08-01T15:06:56;5.50;;;1.20;;
71606;SDS011;60641;53.556;9.914;2022-08-01T15:09:22;6.80;;;1.30;;
71606;SDS011;60641;53.556;9.914;2022-08-01T15:11:49;8.70;;;1.40;;
71606;SDS011;60641;53.556;9.914;2022-08-01T15:14:15;9.40;;;1.30;;
71606;SDS011;60641;53.556;9.914;2022-08-01T15:17:00;5.90;;;1.00;;
71606;SDS011;60641;53.556;9.914;2022-08-01T15:19:27;6.30;;;1.30;;
71606;SDS011;60641;53.556;9.914;2022-08-01T15:21:53;7.80;;;1.30;;
71606;SDS011;60641;53.556;9.914;2022-08-01T15:24:20;7.40;;;1.40;;
71606;SDS011;60641;53.556;9.914;2022-08-01T15:26:46;7.70;;;1.10;;
71606;SDS011;60641;53.556;9.914;2022-08-01T15:29:12;9.00;;;1.60;;
71606;SDS011;60641;53.556;9.914;2022-08-01T15:31:39;6.70;;;1.30;;
71606;SDS011;60641;53.556;9.914;2022-08-01T15:34:05;9.10;;;1.30;;
71606;SDS011;60641;53.556;9.914;2022-08-01T15:36:32;8.00;;;1.30;;
71606;SDS011;60641;53.556;9.914;2022-08-01T15:38:58;7.00;;;1.20;;
71606;SDS011;60641;53.556;9.914;2022-08-01T15:41:25;9.60;;;1.30;;
71606;SDS011;60641;53.556;9.914;2022-08-01T15:43:51;8.40;;;1.30;;
71606;SDS011;60641;53.556;9.914;2022-08-01T15:46:18;8.40;;;1.20;;
71606;SDS011;60641;53.556;9.914;2022-08-01T15:48:44;10.30;;;1.60;;
71606;SDS011;60641;53.556;9.914;2022-08-01T15:51:11;9.40;;;1.60;;
71606;SDS011;60641;53.556;9.914;2022-08-01T15:53:37;8.60;;;1.30;;
71606;SDS011;60641;53.556;9.914;2022-08-01T15:56:04;9.20;;;1.40;;
71606;SDS011;60641;53.556;9.914;2022-08-01T15:58:30;6.00;;;1.40;;